Time;durP1;ratioP1;P1;durP2;ratioP2;P2;SDS_P1;SDS_P2;PMS_P1;PMS_P2;Temp;Humidity;BMP_temperature;BMP_pressure;BME280_temperature;BME280_humidity;BME280_pressure;Samples;Min_cycle;Max_cycle;Signal;HPM_P1;HPM_P2
2021/03/26 00:00:53;;;;;;;28.52;20.35;;;7.10;99.90;;;;;;5022242;28;20109;-67
2021/03/26 00:03:24;;;;;;;52.75;30.92;;;7.10;99.90;;;;;;5023173;28;20026;-67
2021/03/26 00:05:54;;;;;;;40.38;25.75;;;6.90;99.90;;;;;;5028918;28;20045;-67
2021/03/26 00:08:20;;;;;;;41.03;23.75;;;7.20;99.90;;;;;;5026689;28;20120;-67
2021/03/26 00:10:46;;;;;;;41.20;24.88;;;7.00;99.90;;;;;;5025783;28;20550;-67
2021/03/26 00:13:12;;;;;;;34.90;21.92;;;6.80;99.90;;;;;;5029349;28;20061;-66
2021/03/26 00:15:38;;;;;;;27.60;20.52;;;7.00;99.90;;;;;;5028797;28;20079;-67
2021/03/26 00:18:04;;;;;;;28.13;19.95;;;7.00;99.90;;;;;;5029717;28;20379;-67
2021/03/26 00:20:30;;;;;;;29.52;19.65;;;6.90;99.90;;;;;;5026809;28;20022;-67
2021/03/26 00:22:56;;;;;;;28.73;19.80;;;6.70;99.90;;;;;;5029053;28;20036;-67
2021/03/26 00:25:23;;;;;;;25.73;19.35;;;7.00;99.90;;;;;;5025333;28;20018;-67
2021/03/26 00:27:48;;;;;;;22.55;17.88;;;7.10;99.90;;;;;;5016116;28;20105;-67
2021/03/26 00:30:15;;;;;;;25.10;17.85;;;7.10;99.90;;;;;;5025992;28;20557;-67
2021/03/26 00:32:41;;;;;;;21.45;16.65;;;7.00;99.90;;;;;;5030385;28;20084;-67
2021/03/26 00:35:11;;;;;;;12.05;10.95;;;6.80;99.90;;;;;;5025373;28;20557;-66
2021/03/26 00:37:37;;;;;;;8.13;7.43;;;6.50;99.90;;;;;;5030078;28;20583;-67
2021/03/26 00:40:07;;;;;;;11.65;10.55;;;6.60;99.90;;;;;;5024855;28;20026;-67
2021/03/26 00:42:32;;;;;;;14.75;13.27;;;6.60;99.90;;;;;;5031199;28;20028;-67
2021/03/26 00:44:58;;;;;;;21.27;16.10;;;6.60;99.90;;;;;;5024133;28;20487;-66
2021/03/26 00:47:24;;;;;;;26.52;17.77;;;6.50;99.90;;;;;;5030268;28;20109;-66
2021/03/26 00:49:50;;;;;;;20.27;16.88;;;6.30;99.90;;;;;;5021639;28;20029;-66
2021/03/26 00:52:16;;;;;;;26.58;17.63;;;6.30;99.90;;;;;;5028754;28;20155;-66
2021/03/26 00:54:41;;;;;;;20.90;18.27;;;6.50;99.90;;;;;;5024701;28;20037;-66
2021/03/26 00:57:07;;;;;;;24.13;18.85;;;6.60;99.90;;;;;;5030729;28;20024;-66
2021/03/26 00:59:33;;;;;;;26.17;18.92;;;6.50;99.90;;;;;;5021525;28;20070;-66
2021/03/26 01:01:59;;;;;;;24.40;17.92;;;6.60;99.90;;;;;;5040987;28;20040;-66
2021/03/26 01:04:24;;;;;;;23.88;17.45;;;6.40;99.90;;;;;;5022865;28;20040;-66
2021/03/26 01:06:50;;;;;;;21.60;16.42;;;6.50;99.90;;;;;;5026318;28;20048;-67
2021/03/26 01:09:16;;;;;;;23.40;16.55;;;6.40;99.90;;;;;;5027908;28;20642;-66
2021/03/26 01:11:42;;;;;;;22.05;17.15;;;6.50;99.90;;;;;;5028838;28;20367;-66
2021/03/26 01:14:20;;;;;;;22.42;18.77;;;6.50;99.90;;;;;;5026964;28;20649;-66
2021/03/26 01:16:46;;;;;;;20.90;16.80;;;6.50;99.90;;;;;;5027722;28;20028;-66
2021/03/26 01:19:13;;;;;;;19.52;15.95;;;6.30;99.90;;;;;;5025448;28;20029;-66
2021/03/26 01:21:40;;;;;;;24.35;17.55;;;6.60;99.90;;;;;;5026489;28;20136;-66
2021/03/26 01:24:10;;;;;;;21.65;16.02;;;6.40;99.90;;;;;;5014360;28;20043;-66
2021/03/26 01:26:36;;;;;;;19.30;15.98;;;6.50;99.90;;;;;;5019335;28;20060;-66
2021/03/26 01:29:03;;;;;;;18.40;16.35;;;6.50;99.90;;;;;;5015620;28;20089;-68
2021/03/26 01:31:30;;;;;;;23.80;17.83;;;6.40;99.90;;;;;;5018967;28;20018;-66
2021/03/26 01:33:56;;;;;;;20.63;15.65;;;6.30;99.90;;;;;;5021469;28;20538;-66
2021/03/26 01:36:22;;;;;;;18.05;14.70;;;6.40;99.90;;;;;;5025151;28;20011;-66
2021/03/26 01:38:47;;;;;;;17.90;15.63;;;6.50;99.90;;;;;;5023631;28;20030;-66
2021/03/26 01:41:19;;;;;;;18.25;15.32;;;6.40;99.90;;;;;;5024590;28;20485;-66
2021/03/26 01:43:44;;;;;;;18.50;16.23;;;6.20;99.90;;;;;;5023703;28;20041;-66
2021/03/26 01:46:13;;;;;;;22.88;15.80;;;6.20;99.90;;;;;;5029175;28;20017;-66
2021/03/26 01:48:49;;;;;;;18.90;16.02;;;6.20;99.90;;;;;;5023859;28;20038;-66
2021/03/26 01:51:21;;;;;;;20.33;15.48;;;6.20;99.90;;;;;;5028082;28;20525;-66
2021/03/26 01:53:47;;;;;;;24.65;15.57;;;6.10;99.90;;;;;;5023419;28;20453;-66
2021/03/26 01:56:13;;;;;;;20.77;15.18;;;6.30;99.90;;;;;;5025688;28;20029;-66
2021/03/26 01:58:39;;;;;;;15.18;13.57;;;6.40;99.90;;;;;;5013841;28;20033;-66
2021/03/26 02:01:15;;;;;;;15.65;14.00;;;6.30;99.90;;;;;;5018785;28;20094;-66
2021/03/26 02:03:44;;;;;;;14.85;13.20;;;6.30;99.90;;;;;;5023608;28;20025;-66
2021/03/26 02:06:22;;;;;;;15.20;13.38;;;6.10;99.90;;;;;;5023656;28;20072;-66
2021/03/26 02:08:50;;;;;;;16.95;13.73;;;6.30;99.90;;;;;;5026756;28;20116;-66
2021/03/26 02:11:37;;;;;;;19.33;14.77;;;6.40;99.90;;;;;;5021189;28;20018;-66
2021/03/26 02:14:17;;;;;;;23.48;15.10;;;6.30;99.90;;;;;;5022722;28;20057;-66
2021/03/26 02:16:43;;;;;;;16.60;14.27;;;6.00;99.90;;;;;;5020804;28;20060;-66
2021/03/26 02:19:32;;;;;;;19.77;15.07;;;6.00;99.90;;;;;;5021547;28;20037;-67
2021/03/26 02:21:58;;;;;;;18.63;13.98;;;6.20;99.90;;;;;;5026431;28;20036;-66
2021/03/26 02:24:26;;;;;;;15.55;12.75;;;6.40;99.90;;;;;;5022657;28;20471;-66
2021/03/26 02:26:57;;;;;;;16.10;12.75;;;6.30;99.90;;;;;;5029081;28;20113;-67
2021/03/26 02:29:26;;;;;;;16.95;13.20;;;6.10;99.90;;;;;;5020599;28;20050;-66
2021/03/26 02:31:56;;;;;;;15.35;13.30;;;6.00;99.90;;;;;;5014330;28;20022;-66
2021/03/26 02:34:23;;;;;;;14.57;13.07;;;6.00;99.90;;;;;;5022870;28;20025;-67
2021/03/26 02:36:56;;;;;;;14.18;12.75;;;5.90;99.90;;;;;;5028000;28;20041;-66
2021/03/26 02:39:28;;;;;;;17.38;13.55;;;5.90;99.90;;;;;;5023562;28;20544;-66
2021/03/26 02:41:57;;;;;;;16.38;13.32;;;6.00;99.90;;;;;;5028746;28;20025;-66
2021/03/26 02:44:41;;;;;;;11.68;10.48;;;5.70;99.90;;;;;;5017583;28;20087;-66
2021/03/26 02:47:18;;;;;;;12.90;11.13;;;5.70;99.90;;;;;;5028707;28;20025;-67
2021/03/26 02:50:03;;;;;;;16.25;12.60;;;5.90;99.90;;;;;;5022586;28;20498;-66
2021/03/26 02:52:49;;;;;;;15.60;12.82;;;5.80;99.90;;;;;;5010097;28;20018;-66
2021/03/26 02:55:18;;;;;;;;;;;5.80;99.90;;;;;;5023878;28;20037;-66
2021/03/26 02:57:56;;;;;;;18.33;12.90;;;5.70;99.90;;;;;;5028038;28;19905;-67
2021/03/26 03:00:37;;;;;;;15.02;13.25;;;5.80;99.90;;;;;;5023217;28;20017;-67
2021/03/26 03:03:06;;;;;;;12.75;11.32;;;5.60;99.90;;;;;;5026771;28;20038;-66
2021/03/26 03:05:36;;;;;;;14.68;11.57;;;5.50;99.90;;;;;;5023144;28;20049;-67
2021/03/26 03:08:14;;;;;;;13.48;12.07;;;5.60;99.90;;;;;;5026655;28;20044;-66
2021/03/26 03:10:48;;;;;;;14.88;12.30;;;5.80;99.90;;;;;;5024448;28;20040;-66
2021/03/26 03:13:38;;;;;;;15.52;12.52;;;5.80;99.90;;;;;;5025501;28;20049;-66
2021/03/26 03:16:43;;;;;;;15.85;12.85;;;5.70;99.90;;;;;;5022139;28;20572;-67
2021/03/26 03:19:50;;;;;;;17.60;12.88;;;5.60;99.90;;;;;;5011262;28;20053;-67
2021/03/26 03:22:32;;;;;;;17.42;13.50;;;5.60;99.90;;;;;;5015923;28;20022;-66
2021/03/26 03:25:06;;;;;;;15.05;13.25;;;5.70;99.90;;;;;;5018506;28;20042;-66
2021/03/26 03:27:37;;;;;;;16.55;13.27;;;5.80;99.90;;;;;;5028164;28;20025;-67
2021/03/26 03:30:19;;;;;;;20.25;14.02;;;5.70;99.90;;;;;;5017858;28;20038;-66
2021/03/26 03:32:54;;;;;;;17.65;14.45;;;5.60;99.90;;;;;;5026755;28;20026;-66
2021/03/26 03:35:35;;;;;;;14.30;12.80;;;5.60;99.90;;;;;;5016848;28;20021;-67
2021/03/26 03:38:22;;;;;;;14.65;11.77;;;5.70;99.90;;;;;;5026573;28;20033;-67
2021/03/26 03:41:11;;;;;;;14.10;12.73;;;5.60;99.90;;;;;;5014757;28;20517;-67
2021/03/26 03:44:25;;;;;;;10.20;9.43;;;5.60;99.90;;;;;;5018437;28;20064;-68
2021/03/26 03:47:25;;;;;;;8.95;8.25;;;5.20;99.90;;;;;;5023202;28;20048;-67
2021/03/26 03:50:06;;;;;;;9.70;8.93;;;5.10;99.90;;;;;;5024452;28;20033;-67
2021/03/26 03:52:40;;;;;;;12.35;9.75;;;5.10;99.90;;;;;;5026165;28;20520;-67
2021/03/26 03:55:15;;;;;;;10.70;9.80;;;5.20;99.90;;;;;;5023216;28;20068;-67
2021/03/26 03:57:47;;;;;;;12.40;11.20;;;5.30;99.90;;;;;;5025792;28;20026;-68
2021/03/26 04:00:22;;;;;;;13.32;11.98;;;5.30;99.90;;;;;;5019620;28;20200;-68
2021/03/26 04:02:56;;;;;;;14.35;11.77;;;5.50;99.90;;;;;;5028089;28;20018;-67
2021/03/26 04:05:28;;;;;;;14.07;12.43;;;5.20;99.90;;;;;;5026306;28;20060;-67
2021/03/26 04:08:05;;;;;;;15.30;13.02;;;5.20;99.90;;;;;;5029632;28;20037;-68
2021/03/26 04:10:38;;;;;;;16.13;13.20;;;5.10;99.90;;;;;;5025628;28;20173;-67
2021/03/26 04:13:10;;;;;;;15.70;12.63;;;5.40;99.90;;;;;;5029728;28;20467;-68
2021/03/26 04:15:43;;;;;;;14.15;12.02;;;5.40;99.90;;;;;;5026450;28;20021;-67
2021/03/26 04:18:17;;;;;;;13.43;11.50;;;5.30;99.90;;;;;;5029570;28;20513;-67
2021/03/26 04:20:51;;;;;;;14.65;12.63;;;5.40;99.90;;;;;;5026615;28;20034;-67
2021/03/26 04:23:24;;;;;;;19.60;13.77;;;5.40;99.90;;;;;;5029375;28;20522;-67
2021/03/26 04:26:16;;;;;;;13.75;12.15;;;5.20;99.90;;;;;;5016270;28;20026;-67
2021/03/26 04:28:47;;;;;;;15.68;12.15;;;5.20;99.90;;;;;;5012020;28;20058;-67
2021/03/26 04:31:19;;;;;;;15.40;13.05;;;5.40;99.90;;;;;;5022366;28;20048;-67
2021/03/26 04:33:46;;;;;;;17.17;13.43;;;5.10;99.90;;;;;;5024669;28;20021;-67
2021/03/26 04:36:16;;;;;;;18.90;14.70;;;5.10;99.90;;;;;;5029709;28;20428;-67
2021/03/26 04:38:48;;;;;;;13.85;12.45;;;5.20;99.90;;;;;;5025552;28;20037;-68
2021/03/26 04:41:23;;;;;;;12.57;11.38;;;5.20;99.90;;;;;;5024784;28;20056;-68
2021/03/26 04:43:52;;;;;;;17.77;12.90;;;5.00;99.90;;;;;;5014620;28;20103;-67
2021/03/26 04:46:33;;;;;;;13.65;11.98;;;5.00;99.90;;;;;;5030378;28;20167;-67
2021/03/26 04:49:19;;;;;;;15.10;12.45;;;5.20;99.90;;;;;;5027125;28;20037;-67
2021/03/26 04:51:53;;;;;;;;;;;5.20;99.90;;;;;;5027370;28;20025;-67
2021/03/26 04:54:23;;;;;;;15.75;12.70;;;5.30;99.90;;;;;;5023160;28;19909;-67
2021/03/26 04:57:04;;;;;;;16.27;12.15;;;4.90;99.90;;;;;;5016497;28;20022;-67
2021/03/26 04:59:50;;;;;;;15.55;13.85;;;4.70;99.90;;;;;;5020637;28;20037;-67
2021/03/26 05:02:16;;;;;;;15.25;12.63;;;4.90;99.90;;;;;;5027561;28;20022;-67
2021/03/26 05:04:44;;;;;;;16.73;14.95;;;4.90;99.90;;;;;;5023985;28;20022;-67
2021/03/26 05:07:27;;;;;;;16.30;13.55;;;4.60;99.90;;;;;;5029507;28;20156;-68
2021/03/26 05:09:57;;;;;;;14.93;13.02;;;4.60;99.90;;;;;;5024765;28;20087;-67
2021/03/26 05:12:36;;;;;;;16.55;13.30;;;4.70;99.90;;;;;;5021380;28;20029;-67
2021/03/26 05:15:28;;;;;;;17.23;13.70;;;4.80;99.90;;;;;;5020038;28;20026;-67
2021/03/26 05:18:14;;;;;;;17.35;14.75;;;4.90;99.90;;;;;;5025787;28;20041;-67
2021/03/26 05:20:55;;;;;;;19.88;14.75;;;4.70;99.90;;;;;;5021116;28;20626;-67
2021/03/26 05:23:25;;;;;;;20.45;15.80;;;4.70;99.90;;;;;;5028214;28;20056;-67
2021/03/26 05:25:55;;;;;;;24.48;15.65;;;4.80;99.90;;;;;;5013361;28;20029;-67
2021/03/26 05:28:27;;;;;;;23.33;16.17;;;5.00;99.90;;;;;;5022401;28;20517;-68
2021/03/26 05:30:56;;;;;;;20.75;16.67;;;5.00;99.90;;;;;;5025442;28;20469;-67
2021/03/26 05:33:41;;;;;;;19.10;15.45;;;5.00;99.90;;;;;;5027353;28;20148;-67
2021/03/26 05:36:10;;;;;;;25.03;16.80;;;5.10;99.90;;;;;;5025781;28;20021;-67
2021/03/26 05:38:43;;;;;;;24.88;15.38;;;5.00;99.90;;;;;;5025454;28;20542;-67
2021/03/26 05:41:09;;;;;;;19.02;15.75;;;5.00;99.90;;;;;;5026316;28;20020;-67
2021/03/26 05:43:56;;;;;;;21.10;15.88;;;5.10;99.90;;;;;;5025493;28;20434;-67
2021/03/26 05:46:37;;;;;;;24.10;15.93;;;5.00;99.90;;;;;;5021886;28;20509;-67
2021/03/26 05:49:32;;;;;;;23.95;15.20;;;5.10;99.90;;;;;;5023521;28;20038;-67
2021/03/26 05:52:13;;;;;;;22.08;15.38;;;5.10;99.90;;;;;;5020872;28;20079;-68
2021/03/26 05:54:56;;;;;;;19.58;15.27;;;5.20;99.90;;;;;;5018900;28;20029;-67
2021/03/26 05:58:01;;;;;;;20.75;15.02;;;5.20;99.90;;;;;;5024316;28;20640;-67
2021/03/26 06:00:56;;;;;;;19.98;14.27;;;5.10;99.90;;;;;;5025843;28;20036;-67
2021/03/26 06:03:27;;;;;;;23.58;14.27;;;5.20;99.90;;;;;;5020532;28;20124;-67
2021/03/26 06:06:20;;;;;;;19.77;14.63;;;5.10;99.90;;;;;;5025558;28;20533;-67
2021/03/26 06:08:58;;;;;;;18.90;14.45;;;4.80;99.90;;;;;;5012612;28;20060;-68
2021/03/26 06:11:44;;;;;;;17.95;13.80;;;6.30;99.90;;;;;;5026446;28;20021;-68
2021/03/26 06:14:33;;;;;;;22.10;15.20;;;5.60;99.90;;;;;;5022750;28;20029;-68
2021/03/26 06:17:36;;;;;;;17.25;13.75;;;5.20;99.90;;;;;;5018915;28;20075;-68
2021/03/26 06:20:32;;;;;;;21.13;15.23;;;5.10;99.90;;;;;;5022767;28;20029;-68
2021/03/26 06:23:28;;;;;;;23.70;15.55;;;5.20;99.90;;;;;;5028164;28;20139;-69
2021/03/26 06:26:19;;;;;;;23.48;14.85;;;5.30;99.90;;;;;;5025940;28;20506;-69
2021/03/26 06:29:26;;;;;;;20.27;14.80;;;5.10;99.90;;;;;;5011437;28;20399;-68
2021/03/26 06:32:18;;;;;;;19.48;14.88;;;5.30;99.90;;;;;;5012554;28;20045;-68
2021/03/26 06:35:22;;;;;;;23.88;15.50;;;5.30;99.90;;;;;;5021090;28;20535;-68
2021/03/26 06:38:09;;;;;;;20.58;16.27;;;5.30;99.90;;;;;;5026118;28;20626;-68
2021/03/26 06:40:49;;;;;;;23.58;17.80;;;5.40;99.90;;;;;;5022198;28;20022;-68
2021/03/26 06:43:27;;;;;;;27.80;18.33;;;5.30;99.90;;;;;;5025121;28;20021;-68
2021/03/26 06:46:05;;;;;;;27.00;18.88;;;5.30;99.90;;;;;;5026287;28;20425;-68
2021/03/26 06:48:50;;;;;;;36.08;20.88;;;5.50;99.90;;;;;;5022018;28;20034;-68
2021/03/26 06:51:29;;;;;;;31.95;20.38;;;5.50;99.90;;;;;;5026709;28;20083;-68
2021/03/26 06:54:01;;;;;;;25.98;18.10;;;5.70;99.90;;;;;;5024959;28;20022;-68
2021/03/26 06:56:58;;;;;;;29.85;18.52;;;5.90;99.90;;;;;;5025085;28;20037;-67
2021/03/26 06:59:51;;;;;;;21.27;16.63;;;5.70;99.90;;;;;;5023944;28;20730;-68
2021/03/26 07:02:48;;;;;;;23.25;16.27;;;5.90;99.90;;;;;;5027933;28;20385;-67
2021/03/26 07:05:13;;;;;;;20.05;15.07;;;6.00;99.90;;;;;;5018275;28;20148;-67
2021/03/26 07:07:57;;;;;;;18.50;14.15;;;6.00;99.90;;;;;;5027773;28;20113;-69
2021/03/26 07:10:51;;;;;;;18.83;15.07;;;6.10;99.90;;;;;;5024045;28;20123;-70
2021/03/26 07:13:35;;;;;;;19.10;14.65;;;6.20;99.90;;;;;;5026850;28;20518;-68
2021/03/26 07:16:06;;;;;;;23.38;15.57;;;6.20;99.90;;;;;;5026363;28;20498;-69
2021/03/26 07:18:47;;;;;;;18.70;14.70;;;6.50;99.90;;;;;;5028879;28;20088;-68
2021/03/26 07:21:28;;;;;;;22.75;15.18;;;6.60;99.90;;;;;;5023430;28;20057;-69
2021/03/26 07:24:09;;;;;;;18.92;15.75;;;6.60;99.90;;;;;;5029990;28;20187;-68
2021/03/26 07:26:40;;;;;;;20.85;14.90;;;6.70;99.90;;;;;;5026555;28;20363;-68
2021/03/26 07:29:33;;;;;;;20.27;15.27;;;6.90;99.90;;;;;;5029919;28;20116;-69
2021/03/26 07:32:20;;;;;;;20.73;15.20;;;7.00;99.90;;;;;;5033953;28;20513;-68
2021/03/26 07:35:24;;;;;;;22.27;15.88;;;7.00;99.90;;;;;;5027606;28;20111;-68
2021/03/26 07:38:34;;;;;;;21.45;16.23;;;7.30;99.90;;;;;;5029142;28;20060;-68
2021/03/26 07:41:06;;;;;;;21.70;15.13;;;7.50;99.90;;;;;;5029302;28;20066;-68
2021/03/26 07:44:09;;;;;;;30.23;16.23;;;7.80;99.90;;;;;;5027848;28;20030;-68
2021/03/26 07:47:00;;;;;;;33.00;14.88;;;7.90;99.90;;;;;;5025040;28;20117;-69
2021/03/26 07:49:37;;;;;;;34.78;16.38;;;8.00;99.90;;;;;;5021207;28;20037;-68
2021/03/26 07:52:20;;;;;;;50.58;17.80;;;8.00;99.90;;;;;;5016890;28;20644;-69
2021/03/26 07:55:23;;;;;;;54.92;18.25;;;8.00;99.90;;;;;;5018550;28;20137;-69
2021/03/26 07:58:04;;;;;;;63.47;19.10;;;8.00;99.90;;;;;;5016742;28;20141;-68
2021/03/26 08:00:44;;;;;;;56.80;19.65;;;8.10;99.90;;;;;;5024056;28;20022;-69
2021/03/26 08:03:31;;;;;;;67.05;20.42;;;8.30;99.90;;;;;;5027224;28;20104;-68
2021/03/26 08:05:59;;;;;;;;;;;8.40;99.90;;;;;;5028288;28;20050;-69
2021/03/26 08:08:52;;;;;;;96.05;21.33;;;8.50;99.90;;;;;;5028686;28;20008;-68
2021/03/26 08:11:46;;;;;;;75.47;20.30;;;8.60;99.90;;;;;;5025278;28;20022;-67
2021/03/26 08:14:36;;;;;;;62.83;18.67;;;8.80;99.90;;;;;;5017125;28;20033;-68
2021/03/26 08:17:20;;;;;;;43.35;17.60;;;8.90;99.90;;;;;;5020707;28;20021;-67
2021/03/26 08:20:03;;;;;;;30.75;18.83;;;9.00;99.90;;;;;;5022277;28;20053;-67
2021/03/26 08:22:55;;;;;;;48.75;17.70;;;9.30;99.90;;;;;;5020611;28;20088;-67
2021/03/26 08:25:38;;;;;;;56.92;16.45;;;9.40;99.90;;;;;;5018121;28;20061;-65
2021/03/26 08:28:25;;;;;;;49.88;16.30;;;9.30;99.90;;;;;;5015186;28;20029;-65
2021/03/26 08:31:08;;;;;;;45.60;16.30;;;9.80;99.90;;;;;;5025216;28;20044;-65
2021/03/26 08:33:53;;;;;;;32.10;15.45;;;10.00;99.90;;;;;;5029208;28;20025;-65
2021/03/26 08:36:54;;;;;;;33.38;14.57;;;10.00;99.90;;;;;;5022012;28;20512;-65
2021/03/26 08:39:25;;;;;;;34.67;14.18;;;10.50;99.90;;;;;;5028708;28;20566;-65
2021/03/26 08:41:56;;;;;;;32.78;13.88;;;10.70;99.90;;;;;;5029947;28;20519;-65
2021/03/26 08:44:23;;;;;;;29.88;13.20;;;11.20;99.90;;;;;;5028021;28;20031;-65
2021/03/26 08:46:53;;;;;;;29.65;10.98;;;11.10;99.90;;;;;;5027479;28;20087;-65
2021/03/26 08:49:35;;;;;;;11.93;8.95;;;11.30;99.90;;;;;;5024984;28;20120;-65
2021/03/26 08:52:23;;;;;;;18.52;9.00;;;11.80;99.90;;;;;;5012880;28;20026;-65
2021/03/26 08:55:05;;;;;;;11.77;9.15;;;11.80;99.90;;;;;;5021240;28;20025;-65
2021/03/26 08:57:57;;;;;;;18.92;9.52;;;11.90;99.90;;;;;;5019780;28;20014;-65
2021/03/26 09:01:00;;;;;;;14.07;9.52;;;11.90;99.90;;;;;;5020937;28;20061;-66
2021/03/26 09:04:03;;;;;;;23.80;9.38;;;12.00;99.90;;;;;;5025610;28;20022;-66
2021/03/26 09:06:54;;;;;;;21.95;10.18;;;12.20;99.90;;;;;;5027409;28;20167;-66
2021/03/26 09:09:32;;;;;;;15.30;9.15;;;12.20;99.90;;;;;;5022994;28;20056;-65
2021/03/26 09:12:16;;;;;;;11.13;8.30;;;12.40;99.90;;;;;;5014162;28;20524;-66
2021/03/26 09:15:06;;;;;;;9.02;8.07;;;12.70;99.90;;;;;;5024522;28;20028;-66
2021/03/26 09:17:42;;;;;;;14.10;7.15;;;12.90;99.90;;;;;;5029316;28;20561;-65
2021/03/26 09:20:16;;;;;;;12.23;5.93;;;13.40;99.90;;;;;;5023230;28;20109;-66
2021/03/26 09:23:09;;;;;;;13.75;6.13;;;13.30;99.90;;;;;;5028819;28;20036;-65
2021/03/26 09:25:41;;;;;;;11.43;6.25;;;13.60;99.90;;;;;;5024004;28;20398;-65
2021/03/26 09:28:32;;;;;;;14.15;6.38;;;13.70;99.90;;;;;;5025629;28;20226;-65
2021/03/26 09:31:09;;;;;;;13.30;6.00;;;13.90;99.90;;;;;;5020384;28;20017;-66
2021/03/26 09:33:38;;;;;;;17.02;6.70;;;14.10;99.90;;;;;;5015076;28;20030;-65
2021/03/26 09:36:08;;;;;;;11.82;5.97;;;14.40;99.90;;;;;;5021438;28;20026;-66
2021/03/26 09:38:47;;;;;;;9.43;6.30;;;14.80;99.90;;;;;;5024063;28;20029;-66
2021/03/26 09:41:26;;;;;;;15.95;7.05;;;14.80;99.90;;;;;;5024997;28;20029;-66
2021/03/26 09:43:57;;;;;;;13.10;6.45;;;14.60;99.90;;;;;;5023784;28;20037;-65
2021/03/26 09:46:42;;;;;;;10.00;6.00;;;14.80;99.90;;;;;;5024554;28;20053;-66
2021/03/26 09:49:21;;;;;;;11.85;6.57;;;14.80;99.90;;;;;;5022970;28;20498;-66
2021/03/26 09:51:51;;;;;;;9.05;6.60;;;15.10;99.90;;;;;;5025634;28;20017;-66
2021/03/26 09:54:34;;;;;;;14.07;7.00;;;15.10;99.90;;;;;;5016783;28;20028;-66
2021/03/26 09:57:02;;;;;;;10.50;6.45;;;15.20;99.90;;;;;;5031821;28;20035;-66
2021/03/26 09:59:34;;;;;;;18.90;6.53;;;15.20;99.90;;;;;;5022400;28;20512;-66
2021/03/26 10:02:15;;;;;;;8.55;6.22;;;15.60;99.90;;;;;;5024952;28;20017;-66
2021/03/26 10:04:55;;;;;;;7.82;5.95;;;15.90;99.90;;;;;;5026564;28;20481;-66
2021/03/26 10:07:34;;;;;;;11.82;6.40;;;16.00;99.90;;;;;;5016255;28;20548;-66
2021/03/26 10:13:11;;;;;;;12.57;6.40;;;15.90;99.90;;;;;;5020909;28;20086;-65
2021/03/26 10:15:43;;;;;;;12.88;6.68;;;15.70;99.90;;;;;;5027342;28;20041;-66
2021/03/26 10:18:14;;;;;;;12.25;6.45;;;15.70;99.90;;;;;;5015822;28;20382;-68
2021/03/26 10:20:53;;;;;;;11.85;6.40;;;15.80;99.90;;;;;;5018683;28;20067;-66
2021/03/26 10:23:42;;;;;;;11.13;5.65;;;16.00;99.90;;;;;;5017341;28;20026;-66
2021/03/26 10:26:41;;;;;;;16.45;6.68;;;16.30;99.90;;;;;;5017926;28;20541;-66
2021/03/26 10:29:15;;;;;;;23.70;7.53;;;16.30;99.90;;;;;;5021805;28;20037;-66
2021/03/26 10:31:45;;;;;;;12.38;6.53;;;16.20;99.90;;;;;;5014710;28;20033;-67
2021/03/26 10:34:13;;;;;;;14.02;6.95;;;16.10;99.90;;;;;;5022434;28;20107;-66
2021/03/26 10:37:18;;;;;;;10.73;7.05;;;16.30;99.90;;;;;;5024470;28;20052;-67
2021/03/26 10:39:54;;;;;;;11.07;6.15;;;16.60;99.90;;;;;;5019796;28;20434;-67
2021/03/26 10:42:39;;;;;;;13.25;5.78;;;16.60;99.90;;;;;;5028577;28;20029;-66
2021/03/26 10:45:36;;;;;;;12.10;5.95;;;16.80;99.90;;;;;;5024591;28;20217;-67
2021/03/26 10:48:23;;;;;;;14.90;6.13;;;17.50;99.90;;;;;;5028104;28;20021;-67
2021/03/26 10:50:55;;;;;;;6.22;5.45;;;17.80;99.90;;;;;;5017812;28;20041;-67
2021/03/26 10:53:24;;;;;;;12.63;5.55;;;18.10;99.90;;;;;;5029166;28;20037;-67
2021/03/26 10:56:06;;;;;;;13.38;5.47;;;18.30;99.90;;;;;;5028872;28;20032;-67
2021/03/26 10:58:38;;;;;;;21.77;5.88;;;17.90;99.90;;;;;;5030908;28;20033;-66
2021/03/26 11:01:10;;;;;;;14.10;5.60;;;17.70;99.90;;;;;;5024468;28;20029;-66
2021/03/26 11:03:57;;;;;;;8.32;5.85;;;18.10;99.90;;;;;;5030950;28;20052;-67
2021/03/26 11:06:52;;;;;;;11.95;6.07;;;17.90;99.90;;;;;;5023682;28;20049;-67
2021/03/26 11:09:34;;;;;;;12.63;5.50;;;18.10;99.90;;;;;;5029582;28;20103;-66
2021/03/26 11:12:13;;;;;;;10.63;5.28;;;18.00;99.90;;;;;;5017675;28;20033;-67
2021/03/26 11:14:49;;;;;;;7.55;5.13;;;18.20;99.90;;;;;;5029383;28;20037;-66
2021/03/26 11:17:25;;;;;;;5.95;5.32;;;18.50;99.90;;;;;;5030345;28;20032;-66
2021/03/26 11:20:06;;;;;;;9.60;4.85;;;18.60;99.90;;;;;;5028417;28;20025;-66
2021/03/26 11:22:33;;;;;;;6.10;5.32;;;18.40;99.90;;;;;;5029802;28;20021;-66
2021/03/26 11:25:04;;;;;;;8.98;5.30;;;18.70;99.90;;;;;;5027345;28;20553;-66
2021/03/26 11:27:48;;;;;;;8.65;5.30;;;19.20;99.90;;;;;;5029195;28;20087;-68
2021/03/26 11:30:38;;;;;;;8.00;5.50;;;19.10;99.90;;;;;;5024093;28;20045;-67
2021/03/26 11:33:34;;;;;;;6.20;5.60;;;19.10;99.90;;;;;;5017937;28;20461;-67
2021/03/26 11:36:02;;;;;;;6.82;5.90;;;18.90;99.90;;;;;;5028081;28;20393;-67
2021/03/26 11:38:32;;;;;;;11.18;5.43;;;18.50;99.90;;;;;;5029287;28;20033;-67
2021/03/26 11:41:12;;;;;;;7.18;5.20;;;18.20;99.90;;;;;;5028954;28;20036;-67
2021/03/26 11:43:48;;;;;;;16.10;5.22;;;18.20;99.90;;;;;;5028137;28;20040;-67
2021/03/26 11:46:17;;;;;;;8.85;5.32;;;18.80;99.90;;;;;;5024779;28;20036;-67
2021/03/26 11:48:57;;;;;;;11.10;5.65;;;19.20;99.90;;;;;;5027259;28;20410;-67
2021/03/26 11:51:50;;;;;;;13.32;4.90;;;19.60;99.90;;;;;;5027927;28;20072;-67
2021/03/26 11:54:32;;;;;;;6.68;5.22;;;19.60;99.90;;;;;;5020643;28;20044;-67
2021/03/26 11:57:17;;;;;;;14.40;4.95;;;20.10;99.90;;;;;;5030972;28;20031;-67
2021/03/26 11:59:56;;;;;;;10.15;5.50;;;19.40;99.90;;;;;;5031180;28;20501;-67
2021/03/26 12:02:24;;;;;;;6.57;5.32;;;19.30;99.90;;;;;;5031258;28;20026;-68
2021/03/26 12:05:19;;;;;;;8.38;5.43;;;19.40;99.90;;;;;;5024455;28;20501;-65
2021/03/26 12:08:02;;;;;;;5.97;4.93;;;19.10;99.90;;;;;;5023578;28;20034;-66
2021/03/26 12:10:40;;;;;;;5.32;4.70;;;19.20;99.90;;;;;;5025191;28;20037;-66
2021/03/26 12:13:25;;;;;;;6.85;5.15;;;19.10;99.90;;;;;;5028129;28;20170;-66
2021/03/26 12:16:20;;;;;;;11.35;5.47;;;19.50;99.90;;;;;;5025548;28;20028;-66
2021/03/26 12:18:54;;;;;;;11.48;6.38;;;19.30;99.90;;;;;;5027979;28;20033;-66
2021/03/26 12:21:26;;;;;;;5.53;5.03;;;20.00;99.90;;;;;;5030225;28;20036;-66
2021/03/26 12:24:00;;;;;;;12.65;5.75;;;20.40;99.90;;;;;;5028952;28;20021;-66
2021/03/26 12:26:43;;;;;;;8.23;5.65;;;20.00;99.90;;;;;;5030583;28;20490;-66
2021/03/26 12:29:41;;;;;;;5.90;5.28;;;19.80;99.90;;;;;;5022496;28;20053;-66
2021/03/26 12:32:07;;;;;;;5.32;4.78;;;20.70;99.90;;;;;;5028246;28;20033;-66
2021/03/26 12:34:35;;;;;;;5.32;4.80;;;21.10;99.90;;;;;;5027752;28;20108;-66
2021/03/26 12:37:07;;;;;;;7.38;4.93;;;21.00;99.90;;;;;;5025249;28;20033;-66
2021/03/26 12:39:37;;;;;;;7.15;4.97;;;21.00;99.90;;;;;;5014653;28;20523;-66
2021/03/26 12:42:20;;;;;;;9.60;5.07;;;20.80;99.90;;;;;;5029975;28;20026;-66
2021/03/26 12:45:09;;;;;;;10.68;4.90;;;21.00;99.90;;;;;;5023557;28;20030;-66
2021/03/26 12:47:43;;;;;;;12.98;4.97;;;21.80;99.90;;;;;;5011392;28;20022;-66
2021/03/26 12:50:18;;;;;;;6.93;4.93;;;21.50;99.60;;;;;;5022643;28;20045;-66
2021/03/26 12:53:14;;;;;;;5.47;4.97;;;20.70;99.70;;;;;;5011039;28;20510;-66
2021/03/26 12:56:10;;;;;;;5.25;4.75;;;20.90;99.90;;;;;;5016128;28;20073;-66
2021/03/26 12:58:56;;;;;;;11.85;5.28;;;20.90;99.90;;;;;;5013933;28;20026;-66
2021/03/26 13:01:48;;;;;;;5.07;4.53;;;20.70;99.90;;;;;;5021587;28;20068;-66
2021/03/26 13:04:29;;;;;;;9.13;4.78;;;21.80;99.80;;;;;;5015760;28;20105;-66
2021/03/26 13:07:01;;;;;;;9.20;5.32;;;22.70;98.80;;;;;;5017397;28;20050;-66
2021/03/26 13:09:53;;;;;;;6.97;5.43;;;22.10;98.10;;;;;;5022082;28;20045;-66
2021/03/26 13:12:26;;;;;;;6.55;4.90;;;21.90;99.70;;;;;;5029756;28;20028;-66
2021/03/26 13:14:53;;;;;;;7.05;5.10;;;21.60;99.00;;;;;;5020736;28;20044;-66
2021/03/26 13:17:22;;;;;;;10.35;5.00;;;22.20;99.00;;;;;;5028993;28;20547;-66
2021/03/26 13:19:49;;;;;;;10.43;5.30;;;22.50;98.00;;;;;;5025720;28;20079;-66
2021/03/26 13:22:34;;;;;;;5.53;4.97;;;22.40;98.50;;;;;;5028472;28;20018;-66
2021/03/26 13:25:22;;;;;;;9.80;5.32;;;21.70;98.50;;;;;;5026108;28;20080;-66
2021/03/26 13:27:57;;;;;;;6.82;5.20;;;22.30;98.20;;;;;;5029521;28;20045;-66
2021/03/26 13:30:42;;;;;;;6.75;5.60;;;21.80;98.50;;;;;;5024078;28;20040;-66
2021/03/26 13:33:40;;;;;;;5.63;5.13;;;21.50;99.00;;;;;;5026633;28;20021;-66
2021/03/26 13:36:29;;;;;;;7.78;4.45;;;22.30;98.70;;;;;;5022172;28;20021;-66
2021/03/26 13:39:02;;;;;;;9.70;5.10;;;22.50;97.60;;;;;;5024342;28;20021;-66
2021/03/26 13:41:56;;;;;;;10.18;5.40;;;21.90;98.00;;;;;;5011340;28;20029;-66